sensor_id;sensor_type;location;lat;lon;timestamp;P1;durP1;ratioP1;P2;durP2;ratioP2
13455;SDS011;6800;50.940;6.940;2023-11-19T00:01:27;10.50;;;8.50;;
13455;SDS011;6800;50.940;6.940;2023-11-19T00:05:29;18.90;;;14.73;;
13455;SDS011;6800;50.940;6.940;2023-11-19T00:09:31;3.03;;;2.23;;
13455;SDS011;6800;50.940;6.940;2023-11-19T00:13:32;5.23;;;4.33;;
13455;SDS011;6800;50.940;6.940;2023-11-19T00:17:34;6.50;;;4.60;;
13455;SDS011;6800;50.940;6.940;2023-11-19T00:21:35;10.87;;;8.83;;
13455;SDS011;6800;50.940;6.940;2023-11-19T00:25:37;6.93;;;6.23;;
13455;SDS011;6800;50.940;6.940;2023-11-19T00:29:40;3.03;;;2.70;;
13455;SDS011;6800;50.940;6.940;2023-11-19T00:33:41;6.03;;;4.13;;
13455;SDS011;6800;50.940;6.940;2023-11-19T00:37:45;5.50;;;3.07;;
13455;SDS011;6800;50.940;6.940;2023-11-19T00:41:48;4.87;;;4.17;;
13455;SDS011;6800;50.940;6.940;2023-11-19T00:45:50;8.13;;;7.33;;
13455;SDS011;6800;50.940;6.940;2023-11-19T00:49:52;5.87;;;4.50;;
13455;SDS011;6800;50.940;6.940;2023-11-19T00:53:54;8.30;;;6.87;;
13455;SDS011;6800;50.940;6.940;2023-11-19T00:57:56;6.73;;;5.80;;
13455;SDS011;6800;50.940;6.940;2023-11-19T01:01:57;7.30;;;5.77;;
13455;SDS011;6800;50.940;6.940;2023-11-19T01:06:00;5.53;;;4.30;;
13455;SDS011;6800;50.940;6.940;2023-11-19T01:10:03;6.33;;;5.10;;
13455;SDS011;6800;50.940;6.940;2023-11-19T01:14:05;5.17;;;4.17;;
13455;SDS011;6800;50.940;6.940;2023-11-19T01:18:06;10.00;;;7.13;;
13455;SDS011;6800;50.940;6.940;2023-11-19T01:22:10;10.27;;;7.53;;
13455;SDS011;6800;50.940;6.940;2023-11-19T01:26:12;13.70;;;10.57;;
13455;SDS011;6800;50.940;6.940;2023-11-19T01:30:13;14.57;;;11.67;;
13455;SDS011;6800;50.940;6.940;2023-11-19T01:34:15;6.97;;;6.17;;
13455;SDS011;6800;50.940;6.940;2023-11-19T01:38:16;6.90;;;5.17;;
13455;SDS011;6800;50.940;6.940;2023-11-19T01:42:18;10.47;;;6.03;;
13455;SDS011;6800;50.940;6.940;2023-11-19T01:46:20;12.90;;;8.70;;
13455;SDS011;6800;50.940;6.940;2023-11-19T01:50:21;7.77;;;6.17;;
13455;SDS011;6800;50.940;6.940;2023-11-19T01:54:24;8.73;;;6.50;;
13455;SDS011;6800;50.940;6.940;2023-11-19T01:58:26;9.23;;;5.63;;
13455;SDS011;6800;50.940;6.940;2023-11-19T02:02:28;12.53;;;4.30;;
13455;SDS011;6800;50.940;6.940;2023-11-19T02:06:30;10.37;;;5.23;;
13455;SDS011;6800;50.940;6.940;2023-11-19T02:10:34;15.10;;;5.30;;
13455;SDS011;6800;50.940;6.940;2023-11-19T02:14:35;10.30;;;4.70;;
13455;SDS011;6800;50.940;6.940;2023-11-19T02:18:36;8.17;;;4.00;;
13455;SDS011;6800;50.940;6.940;2023-11-19T02:22:38;15.13;;;5.57;;
13455;SDS011;6800;50.940;6.940;2023-11-19T02:26:42;11.50;;;4.47;;
13455;SDS011;6800;50.940;6.940;2023-11-19T02:30:46;10.87;;;4.30;;
13455;SDS011;6800;50.940;6.940;2023-11-19T02:34:47;10.50;;;5.27;;
13455;SDS011;6800;50.940;6.940;2023-11-19T02:38:48;13.53;;;4.97;;
13455;SDS011;6800;50.940;6.940;2023-11-19T02:42:51;13.57;;;6.23;;
13455;SDS011;6800;50.940;6.940;2023-11-19T02:46:58;11.57;;;5.43;;
13455;SDS011;6800;50.940;6.940;2023-11-19T02:51:03;11.37;;;6.47;;
13455;SDS011;6800;50.940;6.940;2023-11-19T02:55:05;11.27;;;4.47;;
13455;SDS011;6800;50.940;6.940;2023-11-19T02:59:11;14.27;;;5.33;;
13455;SDS011;6800;50.940;6.940;2023-11-19T03:03:28;11.53;;;5.57;;
13455;SDS011;6800;50.940;6.940;2023-11-19T03:07:39;12.50;;;4.57;;
13455;SDS011;6800;50.940;6.940;2023-11-19T03:11:47;14.43;;;4.60;;
13455;SDS011;6800;50.940;6.940;2023-11-19T03:15:48;15.17;;;6.60;;
13455;SDS011;6800;50.940;6.940;2023-11-19T03:19:50;12.47;;;4.57;;
13455;SDS011;6800;50.940;6.940;2023-11-19T03:23:51;16.27;;;4.40;;
13455;SDS011;6800;50.940;6.940;2023-11-19T03:27:52;17.30;;;4.90;;
13455;SDS011;6800;50.940;6.940;2023-11-19T03:31:54;11.23;;;3.80;;
13455;SDS011;6800;50.940;6.940;2023-11-19T03:35:56;10.50;;;3.60;;
13455;SDS011;6800;50.940;6.940;2023-11-19T03:39:58;12.00;;;3.67;;
13455;SDS011;6800;50.940;6.940;2023-11-19T03:44:03;11.03;;;3.60;;
13455;SDS011;6800;50.940;6.940;2023-11-19T03:48:05;11.97;;;3.30;;
13455;SDS011;6800;50.940;6.940;2023-11-19T03:52:06;7.10;;;4.10;;
13455;SDS011;6800;50.940;6.940;2023-11-19T03:56:20;16.37;;;3.70;;
13455;SDS011;6800;50.940;6.940;2023-11-19T04:00:22;12.50;;;4.43;;
13455;SDS011;6800;50.940;6.940;2023-11-19T04:04:23;12.70;;;3.87;;
13455;SDS011;6800;50.940;6.940;2023-11-19T04:08:25;14.27;;;3.43;;
13455;SDS011;6800;50.940;6.940;2023-11-19T04:12:26;10.00;;;2.80;;
13455;SDS011;6800;50.940;6.940;2023-11-19T04:16:28;12.13;;;3.60;;
13455;SDS011;6800;50.940;6.940;2023-11-19T04:20:30;7.63;;;3.00;;
13455;SDS011;6800;50.940;6.940;2023-11-19T04:24:32;8.70;;;3.60;;
13455;SDS011;6800;50.940;6.940;2023-11-19T04:28:34;8.60;;;2.30;;
13455;SDS011;6800;50.940;6.940;2023-11-19T04:32:35;9.53;;;3.20;;
13455;SDS011;6800;50.940;6.940;2023-11-19T04:36:37;13.00;;;4.07;;
13455;SDS011;6800;50.940;6.940;2023-11-19T04:40:38;10.43;;;3.30;;
13455;SDS011;6800;50.940;6.940;2023-11-19T04:44:40;15.33;;;3.83;;
13455;SDS011;6800;50.940;6.940;2023-11-19T04:48:41;12.97;;;3.30;;
13455;SDS011;6800;50.940;6.940;2023-11-19T04:52:43;13.80;;;3.17;;
13455;SDS011;6800;50.940;6.940;2023-11-19T04:56:46;15.97;;;3.63;;
13455;SDS011;6800;50.940;6.940;2023-11-19T05:00:48;10.83;;;3.03;;
13455;SDS011;6800;50.940;6.940;2023-11-19T05:04:49;9.67;;;3.00;;
13455;SDS011;6800;50.940;6.940;2023-11-19T05:08:51;8.33;;;2.87;;
13455;SDS011;6800;50.940;6.940;2023-11-19T05:12:53;11.20;;;4.03;;
13455;SDS011;6800;50.940;6.940;2023-11-19T05:16:54;11.30;;;3.20;;
13455;SDS011;6800;50.940;6.940;2023-11-19T05:20:56;14.33;;;2.90;;
13455;SDS011;6800;50.940;6.940;2023-11-19T05:24:57;11.43;;;2.87;;
13455;SDS011;6800;50.940;6.940;2023-11-19T05:28:58;11.30;;;3.07;;
13455;SDS011;6800;50.940;6.940;2023-11-19T05:33:00;15.27;;;3.87;;
13455;SDS011;6800;50.940;6.940;2023-11-19T05:37:02;12.40;;;3.77;;
13455;SDS011;6800;50.940;6.940;2023-11-19T05:41:03;9.90;;;3.10;;
13455;SDS011;6800;50.940;6.940;2023-11-19T05:45:11;13.23;;;3.50;;
13455;SDS011;6800;50.940;6.940;2023-11-19T05:49:13;17.60;;;4.03;;
13455;SDS011;6800;50.940;6.940;2023-11-19T05:53:15;11.70;;;3.27;;
13455;SDS011;6800;50.940;6.940;2023-11-19T05:57:17;17.57;;;3.57;;
13455;SDS011;6800;50.940;6.940;2023-11-19T06:01:24;13.63;;;3.47;;
13455;SDS011;6800;50.940;6.940;2023-11-19T06:05:26;16.90;;;3.10;;
13455;SDS011;6800;50.940;6.940;2023-11-19T06:09:27;12.97;;;3.47;;
13455;SDS011;6800;50.940;6.940;2023-11-19T06:13:29;15.17;;;3.30;;
13455;SDS011;6800;50.940;6.940;2023-11-19T06:17:32;17.83;;;3.40;;
13455;SDS011;6800;50.940;6.940;2023-11-19T06:21:33;12.73;;;3.57;;
13455;SDS011;6800;50.940;6.940;2023-11-19T06:25:36;17.60;;;3.90;;
13455;SDS011;6800;50.940;6.940;2023-11-19T06:29:38;17.30;;;4.00;;
13455;SDS011;6800;50.940;6.940;2023-11-19T06:33:42;16.27;;;4.63;;
13455;SDS011;6800;50.940;6.940;2023-11-19T06:37:43;16.03;;;3.77;;
13455;SDS011;6800;50.940;6.940;2023-11-19T06:41:45;14.63;;;4.40;;
13455;SDS011;6800;50.940;6.940;2023-11-19T06:50:44;15.03;;;4.00;;
13455;SDS011;6800;50.940;6.940;2023-11-19T06:54:45;17.23;;;3.30;;
13455;SDS011;6800;50.940;6.940;2023-11-19T06:58:47;15.73;;;4.30;;
13455;SDS011;6800;50.940;6.940;2023-11-19T07:02:49;15.70;;;4.07;;
13455;SDS011;6800;50.940;6.940;2023-11-19T07:06:52;18.87;;;4.47;;
13455;SDS011;6800;50.940;6.940;2023-11-19T07:10:54;17.70;;;3.70;;
13455;SDS011;6800;50.940;6.940;2023-11-19T07:14:55;15.77;;;4.40;;
13455;SDS011;6800;50.940;6.940;2023-11-19T07:18:57;20.53;;;4.37;;
13455;SDS011;6800;50.940;6.940;2023-11-19T07:22:59;17.10;;;3.87;;
13455;SDS011;6800;50.940;6.940;2023-11-19T07:27:01;20.30;;;3.90;;
13455;SDS011;6800;50.940;6.940;2023-11-19T07:31:05;20.33;;;4.13;;
13455;SDS011;6800;50.940;6.940;2023-11-19T07:35:10;19.87;;;4.30;;
13455;SDS011;6800;50.940;6.940;2023-11-19T07:39:13;15.33;;;3.40;;
13455;SDS011;6800;50.940;6.940;2023-11-19T07:43:14;15.10;;;4.20;;
13455;SDS011;6800;50.940;6.940;2023-11-19T07:47:16;17.03;;;4.47;;
13455;SDS011;6800;50.940;6.940;2023-11-19T07:51:40;15.43;;;4.10;;
13455;SDS011;6800;50.940;6.940;2023-11-19T07:56:00;13.50;;;3.80;;
13455;SDS011;6800;50.940;6.940;2023-11-19T08:00:28;19.70;;;3.83;;
13455;SDS011;6800;50.940;6.940;2023-11-19T08:04:30;18.93;;;4.53;;
13455;SDS011;6800;50.940;6.940;2023-11-19T08:08:31;13.47;;;4.93;;
13455;SDS011;6800;50.940;6.940;2023-11-19T08:12:34;20.47;;;4.73;;
13455;SDS011;6800;50.940;6.940;2023-11-19T08:16:36;17.90;;;4.67;;
13455;SDS011;6800;50.940;6.940;2023-11-19T08:20:38;19.93;;;4.83;;
13455;SDS011;6800;50.940;6.940;2023-11-19T08:24:40;18.70;;;5.03;;
13455;SDS011;6800;50.940;6.940;2023-11-19T08:28:41;18.53;;;4.17;;
13455;SDS011;6800;50.940;6.940;2023-11-19T08:32:43;14.07;;;3.83;;
13455;SDS011;6800;50.940;6.940;2023-11-19T08:36:44;14.07;;;4.10;;
13455;SDS011;6800;50.940;6.940;2023-11-19T08:40:45;14.47;;;3.40;;
13455;SDS011;6800;50.940;6.940;2023-11-19T08:44:50;14.93;;;3.80;;
13455;SDS011;6800;50.940;6.940;2023-11-19T08:48:51;18.47;;;3.97;;
13455;SDS011;6800;50.940;6.940;2023-11-19T08:52:53;20.10;;;3.83;;
13455;SDS011;6800;50.940;6.940;2023-11-19T08:56:54;17.95;;;3.95;;
13455;SDS011;6800;50.940;6.940;2023-11-19T09:00:56;15.18;;;3.67;;
13455;SDS011;6800;50.940;6.940;2023-11-19T09:04:57;13.38;;;4.22;;
13455;SDS011;6800;50.940;6.940;2023-11-19T09:08:59;15.60;;;3.97;;
13455;SDS011;6800;50.940;6.940;2023-11-19T09:13:03;12.93;;;3.70;;
13455;SDS011;6800;50.940;6.940;2023-11-19T09:17:05;14.07;;;3.58;;
13455;SDS011;6800;50.940;6.940;2023-11-19T09:21:06;14.13;;;3.42;;
13455;SDS011;6800;50.940;6.940;2023-11-19T09:25:08;15.52;;;3.85;;
13455;SDS011;6800;50.940;6.940;2023-11-19T09:29:10;14.85;;;4.07;;
13455;SDS011;6800;50.940;6.940;2023-11-19T09:33:12;12.95;;;3.47;;
13455;SDS011;6800;50.940;6.940;2023-11-19T09:37:14;18.13;;;4.35;;
13455;SDS011;6800;50.940;6.940;2023-11-19T09:41:18;19.35;;;3.75;;
13455;SDS011;6800;50.940;6.940;2023-11-19T09:45:20;18.67;;;4.65;;
13455;SDS011;6800;50.940;6.940;2023-11-19T09:49:22;16.92;;;4.07;;
13455;SDS011;6800;50.940;6.940;2023-11-19T09:53:30;14.48;;;3.88;;
13455;SDS011;6800;50.940;6.940;2023-11-19T09:57:33;13.27;;;3.83;;
13455;SDS011;6800;50.940;6.940;2023-11-19T10:01:37;16.27;;;4.15;;
13455;SDS011;6800;50.940;6.940;2023-11-19T10:05:39;17.10;;;4.00;;
13455;SDS011;6800;50.940;6.940;2023-11-19T10:09:42;15.63;;;4.45;;
13455;SDS011;6800;50.940;6.940;2023-11-19T10:13:44;14.48;;;4.32;;
13455;SDS011;6800;50.940;6.940;2023-11-19T10:17:49;19.70;;;4.93;;
13455;SDS011;6800;50.940;6.940;2023-11-19T10:21:50;18.88;;;4.38;;
13455;SDS011;6800;50.940;6.940;2023-11-19T10:25:52;14.30;;;3.90;;
13455;SDS011;6800;50.940;6.940;2023-11-19T10:29:54;17.83;;;4.95;;
13455;SDS011;6800;50.940;6.940;2023-11-19T10:34:00;15.07;;;4.15;;
13455;SDS011;6800;50.940;6.940;2023-11-19T10:38:23;13.55;;;3.58;;
13455;SDS011;6800;50.940;6.940;2023-11-19T10:42:23;17.70;;;4.50;;
13455;SDS011;6800;50.940;6.940;2023-11-19T10:46:38;13.38;;;4.00;;
13455;SDS011;6800;50.940;6.940;2023-11-19T10:50:44;14.23;;;3.67;;
13455;SDS011;6800;50.940;6.940;2023-11-19T10:54:50;14.80;;;3.80;;
13455;SDS011;6800;50.940;6.940;2023-11-19T10:58:55;26.73;;;12.52;;
13455;SDS011;6800;50.940;6.940;2023-11-19T11:03:01;29.60;;;16.25;;
13455;SDS011;6800;50.940;6.940;2023-11-19T11:07:06;18.30;;;5.43;;
13455;SDS011;6800;50.940;6.940;2023-11-19T11:11:08;17.80;;;4.05;;
13455;SDS011;6800;50.940;6.940;2023-11-19T11:15:14;17.80;;;4.28;;
13455;SDS011;6800;50.940;6.940;2023-11-19T11:19:16;22.77;;;7.27;;
13455;SDS011;6800;50.940;6.940;2023-11-19T11:23:45;18.50;;;6.03;;
13455;SDS011;6800;50.940;6.940;2023-11-19T11:28:07;20.40;;;6.93;;
13455;SDS011;6800;50.940;6.940;2023-11-19T11:32:33;16.07;;;4.17;;
13455;SDS011;6800;50.940;6.940;2023-11-19T11:36:49;15.47;;;5.03;;
13455;SDS011;6800;50.940;6.940;2023-11-19T11:41:18;16.30;;;4.93;;
13455;SDS011;6800;50.940;6.940;2023-11-19T11:45:34;17.77;;;4.20;;
13455;SDS011;6800;50.940;6.940;2023-11-19T11:49:56;13.73;;;4.60;;
13455;SDS011;6800;50.940;6.940;2023-11-19T11:58:27;12.77;;;3.20;;
13455;SDS011;6800;50.940;6.940;2023-11-19T12:02:32;10.47;;;3.80;;
13455;SDS011;6800;50.940;6.940;2023-11-19T12:06:33;10.40;;;3.73;;
13455;SDS011;6800;50.940;6.940;2023-11-19T12:10:43;11.88;;;3.03;;
13455;SDS011;6800;50.940;6.940;2023-11-19T12:19:03;13.77;;;4.53;;
13455;SDS011;6800;50.940;6.940;2023-11-19T12:23:08;8.73;;;3.30;;
13455;SDS011;6800;50.940;6.940;2023-11-19T12:27:10;13.32;;;4.38;;
13455;SDS011;6800;50.940;6.940;2023-11-19T12:31:13;12.75;;;3.97;;
13455;SDS011;6800;50.940;6.940;2023-11-19T12:35:16;11.10;;;3.90;;
13455;SDS011;6800;50.940;6.940;2023-11-19T12:39:17;16.25;;;4.40;;
13455;SDS011;6800;50.940;6.940;2023-11-19T12:43:22;12.68;;;4.18;;
13455;SDS011;6800;50.940;6.940;2023-11-19T12:47:23;16.30;;;5.07;;
13455;SDS011;6800;50.940;6.940;2023-11-19T12:51:30;8.50;;;3.40;;
13455;SDS011;6800;50.940;6.940;2023-11-19T12:55:32;9.07;;;4.53;;
13455;SDS011;6800;50.940;6.940;2023-11-19T12:59:34;11.20;;;3.70;;
13455;SDS011;6800;50.940;6.940;2023-11-19T13:03:36;10.77;;;3.10;;
13455;SDS011;6800;50.940;6.940;2023-11-19T13:07:40;10.73;;;4.07;;
13455;SDS011;6800;50.940;6.940;2023-11-19T13:11:41;11.23;;;3.20;;
13455;SDS011;6800;50.940;6.940;2023-11-19T13:15:42;9.27;;;3.42;;
13455;SDS011;6800;50.940;6.940;2023-11-19T13:19:47;10.98;;;3.45;;
13455;SDS011;6800;50.940;6.940;2023-11-19T13:23:48;9.53;;;3.13;;
13455;SDS011;6800;50.940;6.940;2023-11-19T13:27:50;12.68;;;4.07;;
13455;SDS011;6800;50.940;6.940;2023-11-19T13:31:51;15.10;;;4.20;;
13455;SDS011;6800;50.940;6.940;2023-11-19T13:35:53;14.83;;;5.13;;
13455;SDS011;6800;50.940;6.940;2023-11-19T13:39:54;12.27;;;3.92;;
13455;SDS011;6800;50.940;6.940;2023-11-19T13:43:56;13.07;;;3.47;;
13455;SDS011;6800;50.940;6.940;2023-11-19T13:47:57;14.83;;;5.73;;
13455;SDS011;6800;50.940;6.940;2023-11-19T13:51:59;18.63;;;4.13;;
13455;SDS011;6800;50.940;6.940;2023-11-19T13:56:00;13.80;;;4.10;;
13455;SDS011;6800;50.940;6.940;2023-11-19T14:00:03;12.03;;;3.40;;
13455;SDS011;6800;50.940;6.940;2023-11-19T14:04:13;15.18;;;3.92;;
13455;SDS011;6800;50.940;6.940;2023-11-19T14:08:15;13.47;;;3.90;;
13455;SDS011;6800;50.940;6.940;2023-11-19T14:12:26;15.32;;;4.70;;
13455;SDS011;6800;50.940;6.940;2023-11-19T14:16:27;14.30;;;4.78;;
13455;SDS011;6800;50.940;6.940;2023-11-19T14:20:29;12.17;;;3.60;;
13455;SDS011;6800;50.940;6.940;2023-11-19T14:24:31;14.20;;;3.90;;
13455;SDS011;6800;50.940;6.940;2023-11-19T14:28:32;11.73;;;3.55;;
13455;SDS011;6800;50.940;6.940;2023-11-19T14:32:37;14.03;;;3.80;;
13455;SDS011;6800;50.940;6.940;2023-11-19T14:36:39;15.00;;;3.77;;
13455;SDS011;6800;50.940;6.940;2023-11-19T14:40:40;13.23;;;4.13;;
13455;SDS011;6800;50.940;6.940;2023-11-19T14:44:43;11.90;;;4.50;;
13455;SDS011;6800;50.940;6.940;2023-11-19T14:48:45;12.40;;;4.30;;
13455;SDS011;6800;50.940;6.940;2023-11-19T14:52:46;15.83;;;4.30;;
13455;SDS011;6800;50.940;6.940;2023-11-19T14:56:48;14.77;;;4.27;;
13455;SDS011;6800;50.940;6.940;2023-11-19T15:00:49;12.13;;;3.80;;
13455;SDS011;6800;50.940;6.940;2023-11-19T15:04:50;14.87;;;5.20;;
13455;SDS011;6800;50.940;6.940;2023-11-19T15:08:52;15.63;;;4.37;;
13455;SDS011;6800;50.940;6.940;2023-11-19T15:12:55;15.43;;;4.57;;
13455;SDS011;6800;50.940;6.940;2023-11-19T15:16:57;13.03;;;3.67;;
13455;SDS011;6800;50.940;6.940;2023-11-19T15:20:59;13.10;;;3.60;;
13455;SDS011;6800;50.940;6.940;2023-11-19T15:25:00;13.57;;;3.87;;
13455;SDS011;6800;50.940;6.940;2023-11-19T15:29:02;17.87;;;8.20;;
13455;SDS011;6800;50.940;6.940;2023-11-19T15:33:04;14.77;;;5.43;;
13455;SDS011;6800;50.940;6.940;2023-11-19T15:37:06;14.83;;;3.87;;
13455;SDS011;6800;50.940;6.940;2023-11-19T15:41:07;15.27;;;4.10;;
13455;SDS011;6800;50.940;6.940;2023-11-19T15:45:10;15.93;;;6.43;;
13455;SDS011;6800;50.940;6.940;2023-11-19T15:49:12;19.40;;;6.03;;
13455;SDS011;6800;50.940;6.940;2023-11-19T15:53:14;15.10;;;4.50;;
13455;SDS011;6800;50.940;6.940;2023-11-19T15:57:15;12.37;;;4.20;;
13455;SDS011;6800;50.940;6.940;2023-11-19T16:01:18;16.13;;;3.90;;
13455;SDS011;6800;50.940;6.940;2023-11-19T16:05:19;12.40;;;3.13;;
13455;SDS011;6800;50.940;6.940;2023-11-19T16:09:21;18.20;;;4.67;;
13455;SDS011;6800;50.940;6.940;2023-11-19T16:13:23;11.80;;;3.97;;
13455;SDS011;6800;50.940;6.940;2023-11-19T16:17:24;15.23;;;5.13;;
13455;SDS011;6800;50.940;6.940;2023-11-19T16:21:26;11.73;;;5.03;;
13455;SDS011;6800;50.940;6.940;2023-11-19T16:25:28;11.33;;;4.90;;
13455;SDS011;6800;50.940;6.940;2023-11-19T16:29:29;11.40;;;3.80;;
13455;SDS011;6800;50.940;6.940;2023-11-19T16:33:30;16.37;;;5.47;;
13455;SDS011;6800;50.940;6.940;2023-11-19T16:37:32;12.10;;;4.53;;
13455;SDS011;6800;50.940;6.940;2023-11-19T16:41:33;14.63;;;5.23;;
13455;SDS011;6800;50.940;6.940;2023-11-19T16:45:42;11.73;;;6.00;;
13455;SDS011;6800;50.940;6.940;2023-11-19T16:49:44;10.40;;;4.90;;
13455;SDS011;6800;50.940;6.940;2023-11-19T16:53:46;16.30;;;5.27;;
13455;SDS011;6800;50.940;6.940;2023-11-19T16:57:48;15.20;;;4.70;;
13455;SDS011;6800;50.940;6.940;2023-11-19T17:01:52;13.83;;;5.80;;
13455;SDS011;6800;50.940;6.940;2023-11-19T17:05:53;19.83;;;5.50;;
13455;SDS011;6800;50.940;6.940;2023-11-19T17:09:57;14.90;;;4.90;;
13455;SDS011;6800;50.940;6.940;2023-11-19T17:13:58;17.67;;;5.60;;
13455;SDS011;6800;50.940;6.940;2023-11-19T17:18:00;16.47;;;5.97;;
13455;SDS011;6800;50.940;6.940;2023-11-19T17:22:01;18.70;;;6.27;;
13455;SDS011;6800;50.940;6.940;2023-11-19T17:26:05;13.27;;;5.50;;
13455;SDS011;6800;50.940;6.940;2023-11-19T17:30:10;18.13;;;6.63;;
13455;SDS011;6800;50.940;6.940;2023-11-19T17:34:12;16.63;;;6.23;;
13455;SDS011;6800;50.940;6.940;2023-11-19T17:38:16;16.53;;;6.00;;
13455;SDS011;6800;50.940;6.940;2023-11-19T17:42:21;12.60;;;5.10;;
13455;SDS011;6800;50.940;6.940;2023-11-19T17:46:23;13.47;;;5.80;;
13455;SDS011;6800;50.940;6.940;2023-11-19T17:50:28;14.17;;;4.90;;
13455;SDS011;6800;50.940;6.940;2023-11-19T17:54:29;16.23;;;6.10;;
13455;SDS011;6800;50.940;6.940;2023-11-19T17:58:33;14.07;;;5.80;;
13455;SDS011;6800;50.940;6.940;2023-11-19T18:02:34;13.37;;;4.90;;
13455;SDS011;6800;50.940;6.940;2023-11-19T18:06:39;18.53;;;5.93;;
13455;SDS011;6800;50.940;6.940;2023-11-19T18:10:43;15.40;;;5.53;;
13455;SDS011;6800;50.940;6.940;2023-11-19T18:14:47;17.00;;;5.33;;
13455;SDS011;6800;50.940;6.940;2023-11-19T18:18:51;20.20;;;8.80;;
13455;SDS011;6800;50.940;6.940;2023-11-19T18:22:52;13.83;;;7.30;;
13455;SDS011;6800;50.940;6.940;2023-11-19T18:26:55;15.93;;;5.37;;
13455;SDS011;6800;50.940;6.940;2023-11-19T18:30:56;18.27;;;5.53;;
13455;SDS011;6800;50.940;6.940;2023-11-19T18:34:58;15.37;;;4.40;;
13455;SDS011;6800;50.940;6.940;2023-11-19T18:38:59;10.60;;;4.07;;
13455;SDS011;6800;50.940;6.940;2023-11-19T18:43:01;10.53;;;4.53;;
13455;SDS011;6800;50.940;6.940;2023-11-19T18:47:03;9.87;;;6.00;;
13455;SDS011;6800;50.940;6.940;2023-11-19T18:51:05;11.27;;;4.90;;
13455;SDS011;6800;50.940;6.940;2023-11-19T18:55:06;11.00;;;5.63;;
13455;SDS011;6800;50.940;6.940;2023-11-19T18:59:10;12.20;;;4.43;;
13455;SDS011;6800;50.940;6.940;2023-11-19T19:03:13;13.23;;;5.50;;
13455;SDS011;6800;50.940;6.940;2023-11-19T19:07:17;12.07;;;5.07;;
13455;SDS011;6800;50.940;6.940;2023-11-19T19:11:21;10.33;;;3.93;;
13455;SDS011;6800;50.940;6.940;2023-11-19T19:15:23;11.00;;;3.97;;
13455;SDS011;6800;50.940;6.940;2023-11-19T19:19:26;11.37;;;3.30;;
13455;SDS011;6800;50.940;6.940;2023-11-19T19:23:28;14.87;;;5.37;;
13455;SDS011;6800;50.940;6.940;2023-11-19T19:27:29;9.03;;;3.60;;
13455;SDS011;6800;50.940;6.940;2023-11-19T19:31:32;11.23;;;3.87;;
13455;SDS011;6800;50.940;6.940;2023-11-19T19:35:34;7.90;;;3.20;;
13455;SDS011;6800;50.940;6.940;2023-11-19T19:39:36;11.93;;;3.57;;
13455;SDS011;6800;50.940;6.940;2023-11-19T19:43:37;12.93;;;4.00;;
13455;SDS011;6800;50.940;6.940;2023-11-19T19:47:40;9.53;;;3.60;;
13455;SDS011;6800;50.940;6.940;2023-11-19T19:51:42;12.93;;;6.20;;
13455;SDS011;6800;50.940;6.940;2023-11-19T19:55:45;12.90;;;7.03;;
13455;SDS011;6800;50.940;6.940;2023-11-19T19:59:46;9.80;;;4.60;;
13455;SDS011;6800;50.940;6.940;2023-11-19T20:03:48;8.67;;;3.57;;
13455;SDS011;6800;50.940;6.940;2023-11-19T20:07:49;12.63;;;4.13;;
13455;SDS011;6800;50.940;6.940;2023-11-19T20:11:52;9.23;;;3.33;;
13455;SDS011;6800;50.940;6.940;2023-11-19T20:15:54;11.53;;;3.57;;
13455;SDS011;6800;50.940;6.940;2023-11-19T20:19:56;7.43;;;3.10;;
13455;SDS011;6800;50.940;6.940;2023-11-19T20:23:57;10.43;;;3.37;;
13455;SDS011;6800;50.940;6.940;2023-11-19T20:27:59;9.10;;;4.67;;
13455;SDS011;6800;50.940;6.940;2023-11-19T20:32:01;13.23;;;4.30;;
13455;SDS011;6800;50.940;6.940;2023-11-19T20:36:03;9.50;;;4.30;;
13455;SDS011;6800;50.940;6.940;2023-11-19T20:40:06;12.63;;;5.60;;
13455;SDS011;6800;50.940;6.940;2023-11-19T20:44:09;11.37;;;4.90;;
13455;SDS011;6800;50.940;6.940;2023-11-19T20:48:11;8.20;;;4.53;;
13455;SDS011;6800;50.940;6.940;2023-11-19T20:52:13;6.87;;;3.63;;
13455;SDS011;6800;50.940;6.940;2023-11-19T20:56:14;8.57;;;4.17;;
13455;SDS011;6800;50.940;6.940;2023-11-19T21:00:16;11.50;;;3.80;;
13455;SDS011;6800;50.940;6.940;2023-11-19T21:04:19;12.40;;;3.83;;
13455;SDS011;6800;50.940;6.940;2023-11-19T21:08:21;10.97;;;3.70;;
13455;SDS011;6800;50.940;6.940;2023-11-19T21:12:23;10.37;;;3.63;;
13455;SDS011;6800;50.940;6.940;2023-11-19T21:16:24;9.13;;;5.27;;
13455;SDS011;6800;50.940;6.940;2023-11-19T21:20:27;7.00;;;3.97;;
13455;SDS011;6800;50.940;6.940;2023-11-19T21:24:28;5.97;;;3.40;;
13455;SDS011;6800;50.940;6.940;2023-11-19T21:28:30;7.77;;;3.73;;
13455;SDS011;6800;50.940;6.940;2023-11-19T21:32:32;7.60;;;3.10;;
13455;SDS011;6800;50.940;6.940;2023-11-19T21:36:34;7.70;;;3.30;;
13455;SDS011;6800;50.940;6.940;2023-11-19T21:40:35;9.87;;;3.37;;
13455;SDS011;6800;50.940;6.940;2023-11-19T21:44:36;5.57;;;3.10;;
13455;SDS011;6800;50.940;6.940;2023-11-19T21:48:38;9.87;;;3.70;;
13455;SDS011;6800;50.940;6.940;2023-11-19T21:52:39;7.00;;;3.30;;
13455;SDS011;6800;50.940;6.940;2023-11-19T21:56:41;6.60;;;3.07;;
13455;SDS011;6800;50.940;6.940;2023-11-19T22:00:42;5.80;;;3.27;;
13455;SDS011;6800;50.940;6.940;2023-11-19T22:04:44;11.50;;;3.20;;
13455;SDS011;6800;50.940;6.940;2023-11-19T22:08:46;9.27;;;3.73;;
13455;SDS011;6800;50.940;6.940;2023-11-19T22:12:47;8.33;;;3.23;;
13455;SDS011;6800;50.940;6.940;2023-11-19T22:16:49;7.53;;;3.10;;
13455;SDS011;6800;50.940;6.940;2023-11-19T22:20:50;7.57;;;3.13;;
13455;SDS011;6800;50.940;6.940;2023-11-19T22:24:52;6.63;;;3.17;;
13455;SDS011;6800;50.940;6.940;2023-11-19T22:28:53;7.33;;;4.07;;
13455;SDS011;6800;50.940;6.940;2023-11-19T22:32:55;4.60;;;2.67;;
13455;SDS011;6800;50.940;6.940;2023-11-19T22:36:56;6.60;;;2.97;;
13455;SDS011;6800;50.940;6.940;2023-11-19T22:40:58;6.60;;;3.30;;
13455;SDS011;6800;50.940;6.940;2023-11-19T22:44:59;4.97;;;2.70;;
13455;SDS011;6800;50.940;6.940;2023-11-19T22:49:02;6.57;;;3.03;;
13455;SDS011;6800;50.940;6.940;2023-11-19T22:53:03;8.23;;;2.87;;
13455;SDS011;6800;50.940;6.940;2023-11-19T22:57:05;5.30;;;3.07;;
13455;SDS011;6800;50.940;6.940;2023-11-19T23:01:07;5.67;;;2.70;;
13455;SDS011;6800;50.940;6.940;2023-11-19T23:05:09;4.33;;;2.63;;
13455;SDS011;6800;50.940;6.940;2023-11-19T23:09:12;3.63;;;3.10;;
13455;SDS011;6800;50.940;6.940;2023-11-19T23:13:13;7.40;;;4.00;;
13455;SDS011;6800;50.940;6.940;2023-11-19T23:17:15;9.57;;;3.63;;
13455;SDS011;6800;50.940;6.940;2023-11-19T23:21:18;8.30;;;5.50;;
13455;SDS011;6800;50.940;6.940;2023-11-19T23:25:20;5.00;;;4.47;;
13455;SDS011;6800;50.940;6.940;2023-11-19T23:29:21;6.33;;;3.93;;
13455;SDS011;6800;50.940;6.940;2023-11-19T23:33:23;9.57;;;3.90;;
13455;SDS011;6800;50.940;6.940;2023-11-19T23:37:24;4.83;;;3.23;;
13455;SDS011;6800;50.940;6.940;2023-11-19T23:41:28;6.37;;;3.73;;
13455;SDS011;6800;50.940;6.940;2023-11-19T23:45:32;7.20;;;4.07;;
13455;SDS011;6800;50.940;6.940;2023-11-19T23:49:34;7.47;;;3.73;;
13455;SDS011;6800;50.940;6.940;2023-11-19T23:53:35;8.83;;;4.17;;
13455;SDS011;6800;50.940;6.940;2023-11-19T23:57:37;7.43;;;3.60;;
